Terminal Aerodrome Forecast
Issued by NWS

Home | Current Version | Previous Version | Text Only | Print | Product List | Glossary On
Versions: 1 2 3 4 5 6 7 8 9 10 11 12 13 14 15 16 17 18 19 20 21 22 23
810
FTUS46 KLOX 232339
TAFLAX
TAF
KLAX 232339Z 2400/2506 26015KT P6SM SCT200
     FM240200 26009KT P6SM SCT200
     FM240600 VRB03KT P6SM SCT200
     FM241000 VRB03KT P6SM OVC012
     FM241800 26009KT P6SM SCT017
     FM242100 26014KT P6SM SCT200=

USA.gov is the U.S. government's official web portal to all federal, state and local government web resources and services.